sensor_id;sensor_type;location;lat;lon;timestamp;temperature;humidity
69162;DHT22;56269;51.738;21.652;2023-10-31T00:00:47;11.22;98.78
69162;DHT22;56269;51.738;21.652;2023-10-31T00:03:28;11.21;98.91
69162;DHT22;56269;51.738;21.652;2023-10-31T00:05:54;11.21;98.96
69162;DHT22;56269;51.738;21.652;2023-10-31T00:08:20;11.28;98.84
69162;DHT22;56269;51.738;21.652;2023-10-31T00:10:47;11.26;98.88
69162;DHT22;56269;51.738;21.652;2023-10-31T00:13:13;11.18;98.92
69162;DHT22;56269;51.738;21.652;2023-10-31T00:15:39;11.15;98.87
69162;DHT22;56269;51.738;21.652;2023-10-31T00:18:05;11.18;99.17
69162;DHT22;56269;51.738;21.652;2023-10-31T00:20:32;11.19;99.09
69162;DHT22;56269;51.738;21.652;2023-10-31T00:22:58;11.21;98.94
69162;DHT22;56269;51.738;21.652;2023-10-31T00:25:24;11.26;99.03
69162;DHT22;56269;51.738;21.652;2023-10-31T00:27:50;11.23;98.91
69162;DHT22;56269;51.738;21.652;2023-10-31T00:30:17;11.12;98.98
69162;DHT22;56269;51.738;21.652;2023-10-31T00:32:43;11.16;99.13
69162;DHT22;56269;51.738;21.652;2023-10-31T00:35:09;11.14;99.30
69162;DHT22;56269;51.738;21.652;2023-10-31T00:37:38;11.15;99.30
69162;DHT22;56269;51.738;21.652;2023-10-31T00:40:09;11.19;99.18
69162;DHT22;56269;51.738;21.652;2023-10-31T00:42:38;11.25;98.95
69162;DHT22;56269;51.738;21.652;2023-10-31T00:45:07;11.29;98.88
69162;DHT22;56269;51.738;21.652;2023-10-31T00:47:33;11.29;98.84
69162;DHT22;56269;51.738;21.652;2023-10-31T00:49:59;11.35;98.69
69162;DHT22;56269;51.738;21.652;2023-10-31T00:52:25;11.32;98.55
69162;DHT22;56269;51.738;21.652;2023-10-31T00:54:52;11.33;98.61
69162;DHT22;56269;51.738;21.652;2023-10-31T00:57:18;11.36;98.62
69162;DHT22;56269;51.738;21.652;2023-10-31T00:59:46;11.33;98.56
69162;DHT22;56269;51.738;21.652;2023-10-31T01:02:13;11.32;98.58
69162;DHT22;56269;51.738;21.652;2023-10-31T01:04:39;11.36;98.60
69162;DHT22;56269;51.738;21.652;2023-10-31T01:07:05;11.42;98.33
69162;DHT22;56269;51.738;21.652;2023-10-31T01:09:31;11.42;98.27
69162;DHT22;56269;51.738;21.652;2023-10-31T01:11:57;11.53;97.91
69162;DHT22;56269;51.738;21.652;2023-10-31T01:14:24;11.52;98.11
69162;DHT22;56269;51.738;21.652;2023-10-31T01:16:49;11.55;97.96
69162;DHT22;56269;51.738;21.652;2023-10-31T01:19:16;11.52;97.97
69162;DHT22;56269;51.738;21.652;2023-10-31T01:21:42;11.65;97.66
69162;DHT22;56269;51.738;21.652;2023-10-31T01:24:08;11.65;97.75
69162;DHT22;56269;51.738;21.652;2023-10-31T01:26:34;11.66;97.71
69162;DHT22;56269;51.738;21.652;2023-10-31T01:29:02;11.72;97.66
69162;DHT22;56269;51.738;21.652;2023-10-31T01:31:28;11.61;97.75
69162;DHT22;56269;51.738;21.652;2023-10-31T01:33:54;11.65;97.69
69162;DHT22;56269;51.738;21.652;2023-10-31T01:36:25;11.62;97.65
69162;DHT22;56269;51.738;21.652;2023-10-31T01:38:54;11.74;97.39
69162;DHT22;56269;51.738;21.652;2023-10-31T01:41:20;11.73;97.46
69162;DHT22;56269;51.738;21.652;2023-10-31T01:43:47;11.76;97.36
69162;DHT22;56269;51.738;21.652;2023-10-31T01:46:13;11.77;97.28
69162;DHT22;56269;51.738;21.652;2023-10-31T01:48:39;11.73;97.50
69162;DHT22;56269;51.738;21.652;2023-10-31T01:51:05;11.76;97.43
69162;DHT22;56269;51.738;21.652;2023-10-31T01:53:33;11.83;97.26
69162;DHT22;56269;51.738;21.652;2023-10-31T01:56:00;11.90;97.05
69162;DHT22;56269;51.738;21.652;2023-10-31T01:58:34;11.83;97.23
69162;DHT22;56269;51.738;21.652;2023-10-31T02:01:01;11.94;96.92
69162;DHT22;56269;51.738;21.652;2023-10-31T02:03:27;12.01;96.88
69162;DHT22;56269;51.738;21.652;2023-10-31T02:05:54;12.03;96.59
69162;DHT22;56269;51.738;21.652;2023-10-31T02:08:21;12.03;96.65
69162;DHT22;56269;51.738;21.652;2023-10-31T02:10:47;12.03;96.67
69162;DHT22;56269;51.738;21.652;2023-10-31T02:13:14;12.07;96.53
69162;DHT22;56269;51.738;21.652;2023-10-31T02:15:41;12.13;96.38
69162;DHT22;56269;51.738;21.652;2023-10-31T02:18:08;12.05;96.49
69162;DHT22;56269;51.738;21.652;2023-10-31T02:20:34;12.01;96.71
69162;DHT22;56269;51.738;21.652;2023-10-31T02:23:02;12.00;96.69
69162;DHT22;56269;51.738;21.652;2023-10-31T02:25:28;12.00;96.70
69162;DHT22;56269;51.738;21.652;2023-10-31T02:27:55;12.01;96.60
69162;DHT22;56269;51.738;21.652;2023-10-31T02:30:21;12.00;96.57
69162;DHT22;56269;51.738;21.652;2023-10-31T02:32:49;12.05;96.55
69162;DHT22;56269;51.738;21.652;2023-10-31T02:35:17;12.07;96.40
69162;DHT22;56269;51.738;21.652;2023-10-31T02:37:47;12.05;96.49
69162;DHT22;56269;51.738;21.652;2023-10-31T02:40:13;12.07;96.44
69162;DHT22;56269;51.738;21.652;2023-10-31T02:42:40;12.10;96.44
69162;DHT22;56269;51.738;21.652;2023-10-31T02:45:06;12.21;96.17
69162;DHT22;56269;51.738;21.652;2023-10-31T02:47:33;12.14;96.32
69162;DHT22;56269;51.738;21.652;2023-10-31T02:49:59;12.16;96.20
69162;DHT22;56269;51.738;21.652;2023-10-31T02:52:25;12.23;96.08
69162;DHT22;56269;51.738;21.652;2023-10-31T02:54:51;12.20;96.14
69162;DHT22;56269;51.738;21.652;2023-10-31T02:57:17;12.24;96.04
69162;DHT22;56269;51.738;21.652;2023-10-31T02:59:43;12.30;95.76
69162;DHT22;56269;51.738;21.652;2023-10-31T03:02:10;12.37;95.52
69162;DHT22;56269;51.738;21.652;2023-10-31T03:04:37;12.42;95.51
69162;DHT22;56269;51.738;21.652;2023-10-31T03:07:04;12.48;95.21
69162;DHT22;56269;51.738;21.652;2023-10-31T03:09:31;12.48;95.19
69162;DHT22;56269;51.738;21.652;2023-10-31T03:11:57;12.54;95.02
69162;DHT22;56269;51.738;21.652;2023-10-31T03:14:23;12.51;95.12
69162;DHT22;56269;51.738;21.652;2023-10-31T03:16:49;12.46;95.30
69162;DHT22;56269;51.738;21.652;2023-10-31T03:19:15;12.49;94.99
69162;DHT22;56269;51.738;21.652;2023-10-31T03:21:41;12.51;95.10
69162;DHT22;56269;51.738;21.652;2023-10-31T03:24:07;12.45;95.35
69162;DHT22;56269;51.738;21.652;2023-10-31T03:26:34;12.44;95.19
69162;DHT22;56269;51.738;21.652;2023-10-31T03:29:00;12.49;94.93
69162;DHT22;56269;51.738;21.652;2023-10-31T03:31:26;12.49;94.85
69162;DHT22;56269;51.738;21.652;2023-10-31T03:33:52;12.45;95.09
69162;DHT22;56269;51.738;21.652;2023-10-31T03:36:19;12.46;95.04
69162;DHT22;56269;51.738;21.652;2023-10-31T03:38:45;12.49;94.88
69162;DHT22;56269;51.738;21.652;2023-10-31T03:41:12;12.40;95.56
69162;DHT22;56269;51.738;21.652;2023-10-31T03:43:39;12.31;95.49
69162;DHT22;56269;51.738;21.652;2023-10-31T03:46:05;12.30;95.73
69162;DHT22;56269;51.738;21.652;2023-10-31T03:48:33;12.35;95.03
69162;DHT22;56269;51.738;21.652;2023-10-31T03:51:01;12.27;95.40
69162;DHT22;56269;51.738;21.652;2023-10-31T03:53:27;12.38;95.47
69162;DHT22;56269;51.738;21.652;2023-10-31T03:55:59;12.40;94.93
69162;DHT22;56269;51.738;21.652;2023-10-31T03:58:25;12.30;95.30
69162;DHT22;56269;51.738;21.652;2023-10-31T04:00:54;12.42;94.79
69162;DHT22;56269;51.738;21.652;2023-10-31T04:03:20;12.55;94.36
69162;DHT22;56269;51.738;21.652;2023-10-31T04:05:46;12.61;94.03
69162;DHT22;56269;51.738;21.652;2023-10-31T04:08:12;12.59;94.34
69162;DHT22;56269;51.738;21.652;2023-10-31T04:10:38;12.65;93.88
69162;DHT22;56269;51.738;21.652;2023-10-31T04:13:04;12.58;94.16
69162;DHT22;56269;51.738;21.652;2023-10-31T04:15:31;12.54;94.28
69162;DHT22;56269;51.738;21.652;2023-10-31T04:17:56;12.65;94.00
69162;DHT22;56269;51.738;21.652;2023-10-31T04:20:23;12.71;93.59
69162;DHT22;56269;51.738;21.652;2023-10-31T04:22:51;12.76;93.45
69162;DHT22;56269;51.738;21.652;2023-10-31T04:25:17;12.78;93.34
69162;DHT22;56269;51.738;21.652;2023-10-31T04:27:43;13.06;92.30
69162;DHT22;56269;51.738;21.652;2023-10-31T04:30:11;13.19;91.74
69162;DHT22;56269;51.738;21.652;2023-10-31T04:32:37;13.27;91.54
69162;DHT22;56269;51.738;21.652;2023-10-31T04:35:04;13.35;91.23
69162;DHT22;56269;51.738;21.652;2023-10-31T04:37:30;13.47;90.57
69162;DHT22;56269;51.738;21.652;2023-10-31T04:39:56;13.67;89.72
69162;DHT22;56269;51.738;21.652;2023-10-31T04:42:22;13.71;89.42
69162;DHT22;56269;51.738;21.652;2023-10-31T04:44:49;13.77;89.40
69162;DHT22;56269;51.738;21.652;2023-10-31T04:47:15;13.75;89.03
69162;DHT22;56269;51.738;21.652;2023-10-31T04:49:41;13.70;89.52
69162;DHT22;56269;51.738;21.652;2023-10-31T04:52:09;13.66;89.46
69162;DHT22;56269;51.738;21.652;2023-10-31T04:54:36;13.64;89.81
69162;DHT22;56269;51.738;21.652;2023-10-31T04:57:02;13.70;89.33
69162;DHT22;56269;51.738;21.652;2023-10-31T04:59:30;13.75;89.02
69162;DHT22;56269;51.738;21.652;2023-10-31T05:01:56;13.74;89.17
69162;DHT22;56269;51.738;21.652;2023-10-31T05:04:22;13.71;89.07
69162;DHT22;56269;51.738;21.652;2023-10-31T05:06:48;13.74;88.83
69162;DHT22;56269;51.738;21.652;2023-10-31T05:09:14;13.75;88.99
69162;DHT22;56269;51.738;21.652;2023-10-31T05:11:40;13.75;88.80
69162;DHT22;56269;51.738;21.652;2023-10-31T05:14:09;13.82;88.44
69162;DHT22;56269;51.738;21.652;2023-10-31T05:16:42;13.84;88.31
69162;DHT22;56269;51.738;21.652;2023-10-31T05:19:09;13.79;88.54
69162;DHT22;56269;51.738;21.652;2023-10-31T05:21:35;13.87;87.90
69162;DHT22;56269;51.738;21.652;2023-10-31T05:24:02;14.00;87.22
69162;DHT22;56269;51.738;21.652;2023-10-31T05:26:28;14.09;86.65
69162;DHT22;56269;51.738;21.652;2023-10-31T05:28:56;14.00;87.25
69162;DHT22;56269;51.738;21.652;2023-10-31T05:31:26;13.89;87.32
69162;DHT22;56269;51.738;21.652;2023-10-31T05:33:52;14.00;86.87
69162;DHT22;56269;51.738;21.652;2023-10-31T05:36:22;14.09;86.64
69162;DHT22;56269;51.738;21.652;2023-10-31T05:38:49;14.11;86.77
69162;DHT22;56269;51.738;21.652;2023-10-31T05:41:15;14.15;86.37
69162;DHT22;56269;51.738;21.652;2023-10-31T05:43:42;14.29;85.77
69162;DHT22;56269;51.738;21.652;2023-10-31T05:46:08;14.19;86.13
69162;DHT22;56269;51.738;21.652;2023-10-31T05:48:41;14.36;85.02
69162;DHT22;56269;51.738;21.652;2023-10-31T05:51:14;14.30;85.49
69162;DHT22;56269;51.738;21.652;2023-10-31T05:53:44;14.35;85.72
69162;DHT22;56269;51.738;21.652;2023-10-31T05:56:12;14.32;85.29
69162;DHT22;56269;51.738;21.652;2023-10-31T05:58:39;14.33;85.33
69162;DHT22;56269;51.738;21.652;2023-10-31T06:01:07;14.39;84.74
69162;DHT22;56269;51.738;21.652;2023-10-31T06:03:34;14.36;85.32
69162;DHT22;56269;51.738;21.652;2023-10-31T06:06:00;14.39;85.02
69162;DHT22;56269;51.738;21.652;2023-10-31T06:08:26;14.42;84.76
69162;DHT22;56269;51.738;21.652;2023-10-31T06:10:56;14.42;85.01
69162;DHT22;56269;51.738;21.652;2023-10-31T06:13:23;14.40;85.31
69162;DHT22;56269;51.738;21.652;2023-10-31T06:15:51;14.35;85.17
69162;DHT22;56269;51.738;21.652;2023-10-31T06:18:18;14.38;85.33
69162;DHT22;56269;51.738;21.652;2023-10-31T06:20:44;14.33;85.41
69162;DHT22;56269;51.738;21.652;2023-10-31T06:23:10;14.36;85.28
69162;DHT22;56269;51.738;21.652;2023-10-31T06:25:36;14.35;85.66
69162;DHT22;56269;51.738;21.652;2023-10-31T06:28:03;14.40;85.27
69162;DHT22;56269;51.738;21.652;2023-10-31T06:30:29;14.39;84.83
69162;DHT22;56269;51.738;21.652;2023-10-31T06:32:58;14.45;84.75
69162;DHT22;56269;51.738;21.652;2023-10-31T06:35:25;14.40;84.84
69162;DHT22;56269;51.738;21.652;2023-10-31T06:37:52;14.45;84.22
69162;DHT22;56269;51.738;21.652;2023-10-31T06:40:18;14.46;84.40
69162;DHT22;56269;51.738;21.652;2023-10-31T06:42:44;14.52;84.12
69162;DHT22;56269;51.738;21.652;2023-10-31T06:45:10;14.53;83.71
69162;DHT22;56269;51.738;21.652;2023-10-31T06:47:37;14.59;84.37
69162;DHT22;56269;51.738;21.652;2023-10-31T06:50:03;14.48;84.93
69162;DHT22;56269;51.738;21.652;2023-10-31T06:52:29;14.46;84.98
69162;DHT22;56269;51.738;21.652;2023-10-31T06:54:55;14.46;85.15
69162;DHT22;56269;51.738;21.652;2023-10-31T06:57:22;14.46;85.28
69162;DHT22;56269;51.738;21.652;2023-10-31T06:59:47;14.58;83.85
69162;DHT22;56269;51.738;21.652;2023-10-31T07:02:14;14.60;84.45
69162;DHT22;56269;51.738;21.652;2023-10-31T07:04:40;14.55;85.26
69162;DHT22;56269;51.738;21.652;2023-10-31T07:07:06;14.40;86.28
69162;DHT22;56269;51.738;21.652;2023-10-31T07:09:34;14.35;86.67
69162;DHT22;56269;51.738;21.652;2023-10-31T07:12:01;14.33;87.08
69162;DHT22;56269;51.738;21.652;2023-10-31T07:14:30;14.38;86.78
69162;DHT22;56269;51.738;21.652;2023-10-31T07:16:56;14.38;86.91
69162;DHT22;56269;51.738;21.652;2023-10-31T07:19:22;14.46;86.06
69162;DHT22;56269;51.738;21.652;2023-10-31T07:21:49;14.49;86.13
69162;DHT22;56269;51.738;21.652;2023-10-31T07:24:15;14.49;86.44
69162;DHT22;56269;51.738;21.652;2023-10-31T07:26:41;14.56;85.29
69162;DHT22;56269;51.738;21.652;2023-10-31T07:29:07;14.63;85.05
69162;DHT22;56269;51.738;21.652;2023-10-31T07:31:35;14.59;85.36
69162;DHT22;56269;51.738;21.652;2023-10-31T07:34:07;14.52;85.61
69162;DHT22;56269;51.738;21.652;2023-10-31T07:36:34;14.52;84.93
69162;DHT22;56269;51.738;21.652;2023-10-31T07:39:01;14.46;85.38
69162;DHT22;56269;51.738;21.652;2023-10-31T07:41:28;14.42;86.00
69162;DHT22;56269;51.738;21.652;2023-10-31T07:43:54;14.33;87.11
69162;DHT22;56269;51.738;21.652;2023-10-31T07:46:21;14.36;86.12
69162;DHT22;56269;51.738;21.652;2023-10-31T07:48:49;14.29;86.47
69162;DHT22;56269;51.738;21.652;2023-10-31T07:51:18;14.25;86.93
69162;DHT22;56269;51.738;21.652;2023-10-31T07:53:44;14.28;86.32
69162;DHT22;56269;51.738;21.652;2023-10-31T07:56:17;14.21;87.46
69162;DHT22;56269;51.738;21.652;2023-10-31T07:58:43;14.25;86.63
69162;DHT22;56269;51.738;21.652;2023-10-31T08:01:10;14.30;86.53
69162;DHT22;56269;51.738;21.652;2023-10-31T08:03:37;14.36;86.62
69162;DHT22;56269;51.738;21.652;2023-10-31T08:06:06;14.32;87.82
69162;DHT22;56269;51.738;21.652;2023-10-31T08:08:35;14.42;86.54
69162;DHT22;56269;51.738;21.652;2023-10-31T08:11:01;14.43;86.50
69162;DHT22;56269;51.738;21.652;2023-10-31T08:13:28;14.36;88.25
69162;DHT22;56269;51.738;21.652;2023-10-31T08:15:54;14.45;85.84
69162;DHT22;56269;51.738;21.652;2023-10-31T08:18:22;14.49;87.24
69162;DHT22;56269;51.738;21.652;2023-10-31T08:20:49;14.45;87.01
69162;DHT22;56269;51.738;21.652;2023-10-31T08:23:17;14.59;85.36
69162;DHT22;56269;51.738;21.652;2023-10-31T08:25:44;14.56;86.15
69162;DHT22;56269;51.738;21.652;2023-10-31T08:28:10;14.55;84.86
69162;DHT22;56269;51.738;21.652;2023-10-31T08:30:36;14.55;85.45
69162;DHT22;56269;51.738;21.652;2023-10-31T08:33:04;14.56;84.88
69162;DHT22;56269;51.738;21.652;2023-10-31T08:35:31;14.65;84.39
69162;DHT22;56269;51.738;21.652;2023-10-31T08:37:57;14.66;84.45
69162;DHT22;56269;51.738;21.652;2023-10-31T08:40:23;14.66;84.78
69162;DHT22;56269;51.738;21.652;2023-10-31T08:42:49;14.59;85.54
69162;DHT22;56269;51.738;21.652;2023-10-31T08:45:16;14.59;85.26
69162;DHT22;56269;51.738;21.652;2023-10-31T08:47:42;14.55;85.48
69162;DHT22;56269;51.738;21.652;2023-10-31T08:50:09;14.66;84.28
69162;DHT22;56269;51.738;21.652;2023-10-31T08:52:38;14.72;83.49
69162;DHT22;56269;51.738;21.652;2023-10-31T08:55:04;14.77;83.78
69162;DHT22;56269;51.738;21.652;2023-10-31T08:57:30;14.81;83.00
69162;DHT22;56269;51.738;21.652;2023-10-31T08:59:57;14.84;83.37
69162;DHT22;56269;51.738;21.652;2023-10-31T09:02:23;14.87;82.94
69162;DHT22;56269;51.738;21.652;2023-10-31T09:04:49;14.87;82.80
69162;DHT22;56269;51.738;21.652;2023-10-31T09:07:15;14.75;84.11
69162;DHT22;56269;51.738;21.652;2023-10-31T09:09:42;14.77;83.31
69162;DHT22;56269;51.738;21.652;2023-10-31T09:12:08;14.68;84.59
69162;DHT22;56269;51.738;21.652;2023-10-31T09:14:35;14.60;84.67
69162;DHT22;56269;51.738;21.652;2023-10-31T09:17:02;14.60;84.35
69162;DHT22;56269;51.738;21.652;2023-10-31T09:19:28;14.58;84.63
69162;DHT22;56269;51.738;21.652;2023-10-31T09:21:55;14.65;84.09
69162;DHT22;56269;51.738;21.652;2023-10-31T09:24:21;14.69;83.85
69162;DHT22;56269;51.738;21.652;2023-10-31T09:26:49;14.72;83.77
69162;DHT22;56269;51.738;21.652;2023-10-31T09:29:15;14.76;84.24
69162;DHT22;56269;51.738;21.652;2023-10-31T09:31:41;14.73;84.28
69162;DHT22;56269;51.738;21.652;2023-10-31T09:34:08;14.79;83.19
69162;DHT22;56269;51.738;21.652;2023-10-31T09:36:35;14.81;83.15
69162;DHT22;56269;51.738;21.652;2023-10-31T09:39:02;14.81;83.09
69162;DHT22;56269;51.738;21.652;2023-10-31T09:41:29;14.87;83.12
69162;DHT22;56269;51.738;21.652;2023-10-31T09:43:58;14.73;84.81
69162;DHT22;56269;51.738;21.652;2023-10-31T09:46:24;14.68;84.12
69162;DHT22;56269;51.738;21.652;2023-10-31T09:48:50;14.69;84.31
69162;DHT22;56269;51.738;21.652;2023-10-31T09:51:17;14.66;84.70
69162;DHT22;56269;51.738;21.652;2023-10-31T09:53:44;14.63;84.63
69162;DHT22;56269;51.738;21.652;2023-10-31T09:56:11;14.68;83.80
69162;DHT22;56269;51.738;21.652;2023-10-31T09:58:37;14.76;83.32
69162;DHT22;56269;51.738;21.652;2023-10-31T10:01:05;14.80;83.08
69162;DHT22;56269;51.738;21.652;2023-10-31T10:03:31;14.89;82.53
69162;DHT22;56269;51.738;21.652;2023-10-31T10:05:57;14.93;82.60
69162;DHT22;56269;51.738;21.652;2023-10-31T10:08:24;14.97;82.16
69162;DHT22;56269;51.738;21.652;2023-10-31T10:10:51;14.94;82.81
69162;DHT22;56269;51.738;21.652;2023-10-31T10:13:20;15.14;81.20
69162;DHT22;56269;51.738;21.652;2023-10-31T10:15:47;15.23;80.92
69162;DHT22;56269;51.738;21.652;2023-10-31T10:18:27;15.27;81.37
69162;DHT22;56269;51.738;21.652;2023-10-31T10:20:55;15.34;80.47
69162;DHT22;56269;51.738;21.652;2023-10-31T10:23:23;15.44;80.31
69162;DHT22;56269;51.738;21.652;2023-10-31T10:25:50;15.48;80.17
69162;DHT22;56269;51.738;21.652;2023-10-31T10:28:16;15.58;79.46
69162;DHT22;56269;51.738;21.652;2023-10-31T10:30:42;15.55;79.96
69162;DHT22;56269;51.738;21.652;2023-10-31T10:33:08;15.59;79.40
69162;DHT22;56269;51.738;21.652;2023-10-31T10:35:34;15.73;79.00
69162;DHT22;56269;51.738;21.652;2023-10-31T10:38:02;15.83;78.82
69162;DHT22;56269;51.738;21.652;2023-10-31T10:40:29;15.81;78.42
69162;DHT22;56269;51.738;21.652;2023-10-31T10:42:58;15.88;79.95
69162;DHT22;56269;51.738;21.652;2023-10-31T10:45:26;15.95;78.46
69162;DHT22;56269;51.738;21.652;2023-10-31T10:47:55;16.10;78.30
69162;DHT22;56269;51.738;21.652;2023-10-31T10:50:24;16.27;77.18
69162;DHT22;56269;51.738;21.652;2023-10-31T10:53:07;16.43;77.94
69162;DHT22;56269;51.738;21.652;2023-10-31T10:55:42;16.59;78.19
69162;DHT22;56269;51.738;21.652;2023-10-31T10:58:25;16.63;77.14
69162;DHT22;56269;51.738;21.652;2023-10-31T11:00:53;16.64;76.31
69162;DHT22;56269;51.738;21.652;2023-10-31T11:03:22;16.74;77.22
69162;DHT22;56269;51.738;21.652;2023-10-31T11:05:49;16.83;75.88
69162;DHT22;56269;51.738;21.652;2023-10-31T11:08:16;17.04;75.43
69162;DHT22;56269;51.738;21.652;2023-10-31T11:10:43;17.15;74.78
69162;DHT22;56269;51.738;21.652;2023-10-31T11:13:11;17.35;74.81
69162;DHT22;56269;51.738;21.652;2023-10-31T11:15:38;17.85;73.74
69162;DHT22;56269;51.738;21.652;2023-10-31T11:18:05;18.33;72.59
69162;DHT22;56269;51.738;21.652;2023-10-31T11:20:31;18.62;71.98
69162;DHT22;56269;51.738;21.652;2023-10-31T11:22:58;19.10;71.91
69162;DHT22;56269;51.738;21.652;2023-10-31T11:25:26;18.82;71.57
69162;DHT22;56269;51.738;21.652;2023-10-31T11:27:53;18.57;70.91
69162;DHT22;56269;51.738;21.652;2023-10-31T11:30:28;18.48;72.54
69162;DHT22;56269;51.738;21.652;2023-10-31T11:32:55;18.04;71.90
69162;DHT22;56269;51.738;21.652;2023-10-31T11:35:25;17.87;72.56
69162;DHT22;56269;51.738;21.652;2023-10-31T11:38:17;17.80;73.41
69162;DHT22;56269;51.738;21.652;2023-10-31T11:43:20;18.64;72.46
69162;DHT22;56269;51.738;21.652;2023-10-31T11:45:47;18.92;71.86
69162;DHT22;56269;51.738;21.652;2023-10-31T11:48:15;18.79;71.34
69162;DHT22;56269;51.738;21.652;2023-10-31T11:50:41;18.94;70.79
69162;DHT22;56269;51.738;21.652;2023-10-31T11:53:12;18.72;72.06
69162;DHT22;56269;51.738;21.652;2023-10-31T11:55:47;18.45;71.60
69162;DHT22;56269;51.738;21.652;2023-10-31T11:58:18;18.27;72.90
69162;DHT22;56269;51.738;21.652;2023-10-31T12:00:46;18.20;72.34
69162;DHT22;56269;51.738;21.652;2023-10-31T12:03:18;18.27;73.00
69162;DHT22;56269;51.738;21.652;2023-10-31T12:05:56;18.35;72.64
69162;DHT22;56269;51.738;21.652;2023-10-31T12:08:27;18.76;70.98
69162;DHT22;56269;51.738;21.652;2023-10-31T12:11:12;19.22;70.27
69162;DHT22;56269;51.738;21.652;2023-10-31T12:13:40;19.80;70.09
69162;DHT22;56269;51.738;21.652;2023-10-31T12:16:08;19.91;69.49
69162;DHT22;56269;51.738;21.652;2023-10-31T12:18:35;19.90;69.71
69162;DHT22;56269;51.738;21.652;2023-10-31T12:21:02;20.11;69.54
69162;DHT22;56269;51.738;21.652;2023-10-31T12:23:28;19.59;68.95
69162;DHT22;56269;51.738;21.652;2023-10-31T12:25:55;19.29;72.13
69162;DHT22;56269;51.738;21.652;2023-10-31T12:28:24;18.98;71.53
69162;DHT22;56269;51.738;21.652;2023-10-31T12:30:52;18.79;71.68
69162;DHT22;56269;51.738;21.652;2023-10-31T12:33:26;18.52;72.74
69162;DHT22;56269;51.738;21.652;2023-10-31T12:35:56;18.33;72.55
69162;DHT22;56269;51.738;21.652;2023-10-31T12:38:23;18.21;74.04
69162;DHT22;56269;51.738;21.652;2023-10-31T12:40:50;18.14;73.32
69162;DHT22;56269;51.738;21.652;2023-10-31T12:43:17;18.06;74.05
69162;DHT22;56269;51.738;21.652;2023-10-31T12:45:44;18.04;74.14
69162;DHT22;56269;51.738;21.652;2023-10-31T12:48:10;17.98;74.73
69162;DHT22;56269;51.738;21.652;2023-10-31T12:50:41;17.97;74.80
69162;DHT22;56269;51.738;21.652;2023-10-31T12:53:08;17.91;74.54
69162;DHT22;56269;51.738;21.652;2023-10-31T12:55:39;17.83;76.07
69162;DHT22;56269;51.738;21.652;2023-10-31T12:58:06;17.82;75.97
69162;DHT22;56269;51.738;21.652;2023-10-31T13:00:35;17.89;75.78
69162;DHT22;56269;51.738;21.652;2023-10-31T13:03:06;17.82;76.46
69162;DHT22;56269;51.738;21.652;2023-10-31T13:05:35;17.83;76.58
69162;DHT22;56269;51.738;21.652;2023-10-31T13:08:02;17.82;76.84
69162;DHT22;56269;51.738;21.652;2023-10-31T13:10:30;17.83;76.82
69162;DHT22;56269;51.738;21.652;2023-10-31T13:12:59;17.86;78.00
69162;DHT22;56269;51.738;21.652;2023-10-31T13:15:26;17.86;77.23
69162;DHT22;56269;51.738;21.652;2023-10-31T13:17:52;17.83;77.66
69162;DHT22;56269;51.738;21.652;2023-10-31T13:20:19;17.83;77.48
69162;DHT22;56269;51.738;21.652;2023-10-31T13:22:46;17.79;77.15
69162;DHT22;56269;51.738;21.652;2023-10-31T13:25:15;17.72;78.04
69162;DHT22;56269;51.738;21.652;2023-10-31T13:27:43;17.63;77.93
69162;DHT22;56269;51.738;21.652;2023-10-31T13:30:11;17.46;79.89
69162;DHT22;56269;51.738;21.652;2023-10-31T13:32:37;17.43;79.21
69162;DHT22;56269;51.738;21.652;2023-10-31T13:35:05;17.40;79.27
69162;DHT22;56269;51.738;21.652;2023-10-31T13:37:31;17.40;79.19
69162;DHT22;56269;51.738;21.652;2023-10-31T13:39:57;17.31;79.55
69162;DHT22;56269;51.738;21.652;2023-10-31T13:42:23;17.24;79.48
69162;DHT22;56269;51.738;21.652;2023-10-31T13:44:51;17.15;80.75
69162;DHT22;56269;51.738;21.652;2023-10-31T13:47:17;17.05;81.20
69162;DHT22;56269;51.738;21.652;2023-10-31T13:49:44;16.96;81.17
69162;DHT22;56269;51.738;21.652;2023-10-31T13:52:10;16.96;81.41
69162;DHT22;56269;51.738;21.652;2023-10-31T13:54:37;16.92;81.13
69162;DHT22;56269;51.738;21.652;2023-10-31T13:57:03;16.95;81.69
69162;DHT22;56269;51.738;21.652;2023-10-31T13:59:30;16.85;81.67
69162;DHT22;56269;51.738;21.652;2023-10-31T14:01:57;16.81;82.12
69162;DHT22;56269;51.738;21.652;2023-10-31T14:04:23;16.78;82.31
69162;DHT22;56269;51.738;21.652;2023-10-31T14:06:49;16.74;82.52
69162;DHT22;56269;51.738;21.652;2023-10-31T14:09:16;16.75;82.01
69162;DHT22;56269;51.738;21.652;2023-10-31T14:11:42;16.71;82.36
69162;DHT22;56269;51.738;21.652;2023-10-31T14:14:09;16.61;83.05
69162;DHT22;56269;51.738;21.652;2023-10-31T14:16:36;16.59;83.12
69162;DHT22;56269;51.738;21.652;2023-10-31T14:19:04;16.57;83.20
69162;DHT22;56269;51.738;21.652;2023-10-31T14:21:32;16.49;83.48
69162;DHT22;56269;51.738;21.652;2023-10-31T14:24:00;16.40;83.67
69162;DHT22;56269;51.738;21.652;2023-10-31T14:26:27;16.30;83.93
69162;DHT22;56269;51.738;21.652;2023-10-31T14:28:54;16.24;84.29
69162;DHT22;56269;51.738;21.652;2023-10-31T14:31:20;16.22;84.21
69162;DHT22;56269;51.738;21.652;2023-10-31T14:33:49;16.08;85.15
69162;DHT22;56269;51.738;21.652;2023-10-31T14:36:15;16.05;85.17
69162;DHT22;56269;51.738;21.652;2023-10-31T14:38:42;16.03;85.08
69162;DHT22;56269;51.738;21.652;2023-10-31T14:41:08;16.03;85.34
69162;DHT22;56269;51.738;21.652;2023-10-31T14:43:35;16.03;84.93
69162;DHT22;56269;51.738;21.652;2023-10-31T14:46:01;15.92;85.68
69162;DHT22;56269;51.738;21.652;2023-10-31T14:48:28;15.81;86.21
69162;DHT22;56269;51.738;21.652;2023-10-31T14:50:55;15.79;85.96
69162;DHT22;56269;51.738;21.652;2023-10-31T14:53:23;15.79;86.29
69162;DHT22;56269;51.738;21.652;2023-10-31T14:55:49;15.66;86.75
69162;DHT22;56269;51.738;21.652;2023-10-31T14:58:15;15.59;87.01
69162;DHT22;56269;51.738;21.652;2023-10-31T15:00:41;15.42;87.65
69162;DHT22;56269;51.738;21.652;2023-10-31T15:03:08;15.34;88.23
69162;DHT22;56269;51.738;21.652;2023-10-31T15:05:37;15.26;88.65
69162;DHT22;56269;51.738;21.652;2023-10-31T15:08:03;15.24;88.76
69162;DHT22;56269;51.738;21.652;2023-10-31T15:10:29;15.24;89.03
69162;DHT22;56269;51.738;21.652;2023-10-31T15:12:56;15.23;88.99
69162;DHT22;56269;51.738;21.652;2023-10-31T15:15:22;15.30;88.75
69162;DHT22;56269;51.738;21.652;2023-10-31T15:17:49;15.38;88.58